createdAt,value
2019-06-20T00:02:31.281Z,99640.74
2019-06-20T00:05:04.320Z,99640.74
2019-06-20T00:07:37.343Z,99645.39
2019-06-20T00:10:10.574Z,99640.74
2019-06-20T00:12:42.297Z,99629.88
2019-06-20T00:15:15.096Z,99629.88
2019-06-20T00:17:48.091Z,99639.30
2019-06-20T00:20:21.058Z,99636.56
2019-06-20T00:22:54.048Z,99636.56
2019-06-20T00:25:27.043Z,99622.85
2019-06-20T00:28:00.424Z,99622.63
2019-06-20T00:30:33.089Z,99612.49
2019-06-20T00:33:06.348Z,99613.58
2019-06-20T00:35:39.081Z,99616.31
2019-06-20T00:38:13.007Z,99623.72
2019-06-20T00:40:46.571Z,99656.14
2019-06-20T00:43:18.557Z,99719.66
2019-06-20T00:45:50.275Z,99714.55
2019-06-20T00:48:23.442Z,99714.55
2019-06-20T00:50:56.102Z,99728.27
2019-06-20T00:53:29.005Z,99770.47
2019-06-20T00:56:01.884Z,99776.78
2019-06-20T00:58:34.450Z,99783.31
2019-06-20T01:01:07.119Z,99739.44
2019-06-20T01:03:40.130Z,99742.19
2019-06-20T01:06:13.087Z,99767.73
2019-06-20T01:08:46.039Z,99758.63
2019-06-20T01:11:19.505Z,99736.12
2019-06-20T01:13:52.887Z,99732.97
2019-06-20T01:16:26.382Z,99757.19
2019-06-20T01:18:59.089Z,99767.73
2019-06-20T01:21:35.476Z,99772.95
2019-06-20T01:24:08.326Z,99767.73
2019-06-20T01:26:41.427Z,99775.33
2019-06-20T01:29:14.122Z,99773.42
2019-06-20T01:31:46.919Z,99777.83
2019-06-20T01:34:20.022Z,99780.57
2019-06-20T01:36:52.993Z,99776.16
2019-06-20T01:39:25.918Z,99788.80
2019-06-20T01:41:58.627Z,99782.48
2019-06-20T01:44:31.037Z,99782.48
2019-06-20T01:47:03.861Z,99780.81
2019-06-20T01:49:36.839Z,99772.80
2019-06-20T01:52:09.307Z,99754.30
2019-06-20T01:54:42.067Z,99756.45
2019-06-20T01:57:15.106Z,99758.73
2019-06-20T01:59:48.568Z,99755.31
2019-06-20T02:02:21.455Z,99752.17
2019-06-20T02:04:54.857Z,99751.33
2019-06-20T02:07:28.355Z,99751.33
2019-06-20T02:10:01.719Z,99755.16
2019-06-20T02:12:34.349Z,99761.06
2019-06-20T02:15:07.268Z,99754.17
2019-06-20T02:17:40.102Z,99740.46
2019-06-20T02:20:29.526Z,99731.63
2019-06-20T02:23:02.300Z,99729.77
2019-06-20T02:25:35.312Z,99729.77
2019-06-20T02:28:08.025Z,99711.45
2019-06-20T02:30:41.221Z,99705.51
2019-06-20T02:33:14.319Z,99712.59
2019-06-20T02:35:48.081Z,99705.41
2019-06-20T02:38:21.320Z,99691.13
2019-06-20T02:40:54.105Z,99678.61
2019-06-20T02:43:27.042Z,99677.53
2019-06-20T02:46:00.418Z,99683.02
2019-06-20T02:48:33.025Z,99692.32
2019-06-20T02:51:06.255Z,99691.23
2019-06-20T02:53:39.068Z,99706.64
2019-06-20T02:56:12.024Z,99699.47
2019-06-20T02:58:45.045Z,99700.33
2019-06-20T03:01:18.266Z,99704.95
2019-06-20T03:03:51.014Z,99713.42
2019-06-20T03:06:24.006Z,99734.52
2019-06-20T03:08:57.435Z,99740.00
2019-06-20T03:11:30.021Z,99742.28
2019-06-20T03:14:02.808Z,99753.86
2019-06-20T03:16:35.348Z,99756.20
2019-06-20T03:19:08.094Z,99765.26
2019-06-20T03:21:40.866Z,99770.31
2019-06-20T03:24:13.425Z,99769.02
2019-06-20T03:26:46.022Z,99775.33
2019-06-20T03:29:18.777Z,99770.68
2019-06-20T03:31:51.412Z,99769.84
2019-06-20T03:34:23.908Z,99763.53
2019-06-20T03:36:56.636Z,99766.86
2019-06-20T03:39:28.193Z,99774.04
2019-06-20T03:42:01.029Z,99765.20
2019-06-20T03:44:34.272Z,99757.19
2019-06-20T03:47:07.024Z,99752.17
2019-06-20T03:49:40.016Z,99744.34
2019-06-20T03:52:13.116Z,99754.02
2019-06-20T03:54:46.021Z,99759.50
2019-06-20T03:57:19.089Z,99772.95
2019-06-20T03:59:52.040Z,99787.96
2019-06-20T04:02:25.106Z,99798.93
2019-06-20T04:04:58.089Z,99797.88
2019-06-20T04:07:30.888Z,99788.80
2019-06-20T04:10:03.604Z,99798.93
2019-06-20T04:12:36.732Z,99914.99
2019-06-20T04:15:18.597Z,99914.99
2019-06-20T04:17:43.075Z,99965.34
2019-06-20T04:20:16.036Z,99946.37
2019-06-20T04:22:49.102Z,99933.11
2019-06-20T04:25:22.015Z,99963.27
2019-06-20T04:27:55.099Z,99956.12
2019-06-20T04:30:28.411Z,99957.16
2019-06-20T04:33:00.988Z,99970.87
2019-06-20T04:35:33.918Z,99978.27
2019-06-20T04:38:06.876Z,99977.22
2019-06-20T04:40:39.542Z,99982.46
2019-06-20T04:43:12.266Z,99966.67
2019-06-20T04:46:12.774Z,99966.67
2019-06-20T04:48:45.481Z,99969.59
2019-06-20T04:51:18.065Z,99956.74
2019-06-20T04:53:51.127Z,99956.74
2019-06-20T04:56:24.099Z,99954.42
2019-06-20T04:58:57.036Z,99947.06
2019-06-20T05:01:30.988Z,99952.09
2019-06-20T05:04:03.904Z,99949.11
2019-06-20T05:06:37.036Z,99937.09
2019-06-20T05:09:11.085Z,99938.14
2019-06-20T05:11:44.110Z,99938.14
2019-06-20T05:14:18.159Z,99927.17
2019-06-20T05:18:16.904Z,99946.16
2019-06-20T05:20:44.256Z,99934.19
2019-06-20T05:24:27.352Z,99934.19
2019-06-20T05:57:42.167Z,99977.49
2019-06-20T06:00:15.936Z,99971.77
2019-06-20T06:02:49.094Z,99964.55
2019-06-20T06:05:22.106Z,99936.93
2019-06-20T06:07:55.317Z,99929.91
2019-06-20T06:10:28.013Z,99940.05
2019-06-20T06:13:00.514Z,99942.34
2019-06-20T06:15:33.324Z,99933.91
2019-06-20T06:18:06.144Z,99924.59
2019-06-20T06:20:39.019Z,99930.95
2019-06-20T06:23:11.727Z,99917.45
2019-06-20T06:25:46.146Z,99921.86
2019-06-20T06:28:19.065Z,99918.07
2019-06-20T06:30:52.357Z,99913.63
2019-06-20T06:33:25.322Z,99915.33
2019-06-20T06:35:58.334Z,99909.84
2019-06-20T06:38:31.325Z,99912.59
2019-06-20T06:41:04.626Z,99916.99
2019-06-20T06:43:42.089Z,99909.02
2019-06-20T06:46:12.516Z,99909.02
2019-06-20T06:48:45.551Z,99902.50
2019-06-20T06:51:19.385Z,99916.99
2019-06-20T06:53:52.098Z,99916.99
2019-06-20T06:56:25.370Z,99914.88
2019-06-20T06:58:58.317Z,99917.83
2019-06-20T07:01:33.855Z,99931.33
2019-06-20T07:04:07.327Z,99942.30
2019-06-20T07:06:40.344Z,99935.14
2019-06-20T07:09:13.524Z,99931.33
2019-06-20T07:11:46.339Z,99920.36
2019-06-20T07:14:19.497Z,99920.36
2019-06-20T07:17:00.132Z,99911.92
2019-06-20T07:19:27.330Z,99911.92
2019-06-20T07:22:00.116Z,99919.69
2019-06-20T07:24:33.162Z,99919.06
2019-06-20T07:27:06.679Z,99913.38
2019-06-20T07:29:38.520Z,99916.95
2019-06-20T07:32:11.469Z,99916.95
2019-06-20T07:34:44.423Z,99930.88
2019-06-20T07:37:17.196Z,99934.45
2019-06-20T07:39:50.101Z,99939.72
2019-06-20T07:42:22.997Z,99935.69
2019-06-20T07:45:06.044Z,99929.98
2019-06-20T07:47:40.349Z,99929.12
2019-06-20T07:50:14.366Z,99924.72
2019-06-20T07:53:01.629Z,99919.45
2019-06-20T07:55:25.332Z,99927.08
2019-06-20T07:57:58.366Z,99924.92
2019-06-20T08:00:32.431Z,99936.97
2019-06-20T08:03:06.236Z,99932.32
2019-06-20T08:05:40.415Z,99927.67
2019-06-20T08:08:28.578Z,99926.84
2019-06-20T08:18:31.647Z,99947.11
2019-06-20T08:21:06.591Z,99945.87
2019-06-20T08:23:40.388Z,99938.72
2019-06-20T08:26:15.389Z,99938.72
2019-06-20T08:28:48.773Z,99939.27
2019-06-20T08:31:27.347Z,99947.48
2019-06-20T08:34:00.525Z,99934.61
2019-06-20T08:36:33.639Z,99940.96
2019-06-20T08:39:24.724Z,99940.96
2019-06-20T08:41:57.173Z,99936.06
2019-06-20T08:44:55.384Z,99938.22
2019-06-20T08:47:19.598Z,99934.61
2019-06-20T08:49:59.794Z,99936.52
2019-06-20T08:52:33.235Z,99936.52
2019-06-20T08:55:10.129Z,99940.09
2019-06-20T08:57:43.982Z,99940.96
2019-06-20T09:00:17.326Z,99941.80
2019-06-20T09:02:50.454Z,99937.14
2019-06-20T09:05:24.299Z,99934.40
2019-06-20T09:07:58.986Z,99945.13
2019-06-20T09:10:41.664Z,99939.88
2019-06-20T09:13:13.962Z,99939.64
2019-06-20T09:15:56.739Z,99936.06
2019-06-20T09:18:31.941Z,99941.55
2019-06-20T09:21:13.723Z,99946.20
2019-06-20T09:23:47.479Z,99945.98
2019-06-20T09:26:22.457Z,99950.61
2019-06-20T09:29:32.991Z,99945.98
2019-06-20T09:40:03.740Z,99941.63
2019-06-20T09:43:41.744Z,99941.38
2019-06-20T09:47:29.220Z,99953.81
2019-06-20T09:53:49.907Z,99965.48
2019-06-20T09:56:23.102Z,99966.06
2019-06-20T09:58:58.286Z,99960.37
2019-06-20T10:01:31.091Z,99962.66
2019-06-20T10:04:04.464Z,99968.98
2019-06-20T10:06:37.346Z,99964.11
2019-06-20T10:09:11.496Z,99970.43
2019-06-20T10:11:45.289Z,99971.27
2019-06-20T10:14:19.124Z,99961.16
2019-06-20T10:16:54.016Z,99961.16
2019-06-20T10:19:27.048Z,99965.56
2019-06-20T10:22:03.590Z,99958.17
2019-06-20T10:24:38.773Z,99966.64
2019-06-20T10:27:12.581Z,99966.86
2019-06-20T10:29:48.986Z,99964.95
2019-06-20T10:32:25.513Z,99964.95
2019-06-20T10:34:58.936Z,99963.48
2019-06-20T10:37:33.549Z,99963.48
2019-06-20T10:41:11.703Z,99969.14
2019-06-20T10:46:40.286Z,99964.56
2019-06-20T10:49:13.414Z,99964.56
2019-06-20T10:51:47.764Z,99967.93
2019-06-20T10:54:21.316Z,99968.77
2019-06-20T11:01:33.255Z,99972.34
2019-06-20T11:06:56.117Z,99977.20
2019-06-20T11:09:33.186Z,99970.05
2019-06-20T11:12:42.423Z,99975.08
2019-06-20T11:15:15.111Z,99978.45
2019-06-20T11:17:48.601Z,99975.08
2019-06-20T11:20:20.267Z,99980.56
2019-06-20T11:22:55.970Z,99979.48
2019-06-20T11:25:29.013Z,99980.56
2019-06-20T11:28:01.939Z,99977.61
2019-06-20T11:30:48.252Z,99979.48
2019-06-20T11:33:10.443Z,99979.48
2019-06-20T11:35:43.486Z,99979.48
2019-06-20T11:38:16.336Z,99982.23
2019-06-20T11:40:49.334Z,99982.23
2019-06-20T11:43:22.126Z,99978.45
2019-06-20T11:45:55.120Z,99978.45
2019-06-20T11:48:28.332Z,99976.54
2019-06-20T11:51:01.365Z,99966.64
2019-06-20T11:53:35.274Z,99968.52
2019-06-20T11:56:09.500Z,99977.61
2019-06-20T11:58:42.382Z,99967.48
2019-06-20T12:01:15.319Z,99967.48
2019-06-20T12:03:49.020Z,99961.98
2019-06-20T12:06:21.905Z,99960.30
2019-06-20T12:08:54.889Z,99964.11
2019-06-20T12:11:27.544Z,99961.16
2019-06-20T12:14:00.329Z,99957.55
2019-06-20T12:16:33.015Z,99968.52
2019-06-20T12:19:05.900Z,99958.41
2019-06-20T12:21:39.755Z,99959.25
2019-06-20T12:24:21.452Z,99947.44
2019-06-20T12:26:55.145Z,99951.85
2019-06-20T12:29:30.579Z,99951.85
2019-06-20T12:32:49.637Z,99937.30
2019-06-20T12:35:48.682Z,99933.73
2019-06-20T12:38:28.644Z,99935.02
2019-06-20T12:41:01.814Z,99947.87
2019-06-20T12:43:44.677Z,99944.29
2019-06-20T12:46:23.219Z,99940.26
2019-06-20T12:49:07.062Z,99941.34
2019-06-20T12:52:09.220Z,99936.69
2019-06-20T12:54:43.226Z,99937.76
2019-06-20T12:57:16.456Z,99939.64
2019-06-20T12:59:52.513Z,99940.50
2019-06-20T13:02:56.071Z,99924.87
2019-06-20T13:05:44.918Z,99924.87
2019-06-20T13:08:19.335Z,99933.32
2019-06-20T13:10:52.408Z,99937.76
2019-06-20T13:13:25.665Z,99940.50
2019-06-20T13:15:58.510Z,99948.73
2019-06-20T13:18:34.702Z,99943.84
2019-06-20T13:21:11.029Z,99943.84
2019-06-20T13:24:05.988Z,99950.19
2019-06-20T13:27:34.368Z,99949.11
2019-06-20T13:30:12.375Z,99945.53
2019-06-20T13:32:48.989Z,99942.63
2019-06-20T13:38:23.584Z,99946.58
2019-06-20T13:40:55.744Z,99939.42
2019-06-20T13:43:32.383Z,99930.13
2019-06-20T13:47:27.477Z,99929.28
2019-06-20T13:54:19.549Z,99931.03
2019-06-20T13:56:56.260Z,99925.80
2019-06-20T13:59:59.396Z,99925.80
2019-06-20T14:02:54.543Z,99916.48
2019-06-20T14:05:54.771Z,99925.55
2019-06-20T14:09:00.078Z,99917.32
2019-06-20T14:11:42.968Z,99917.32
2019-06-20T14:14:17.152Z,99918.16
2019-06-20T14:17:00.351Z,99927.25
2019-06-20T14:19:33.729Z,99927.00
2019-06-20T14:22:07.388Z,99913.53
2019-06-20T14:25:36.065Z,99917.11
2019-06-20T14:28:12.109Z,99916.86
2019-06-20T14:30:46.438Z,99915.66
2019-06-20T14:36:14.591Z,99920.89
2019-06-20T14:37:49.628Z,99919.02
2019-06-20T14:40:24.530Z,99915.03
2019-06-20T14:42:57.273Z,99915.03
2019-06-20T14:45:30.380Z,99917.32
2019-06-20T14:48:04.100Z,99917.11
2019-06-20T14:50:37.552Z,99911.63
2019-06-20T14:53:10.738Z,99912.45
2019-06-20T14:55:44.402Z,99912.21
2019-06-20T14:58:22.535Z,99916.03
2019-06-20T15:02:08.932Z,99908.64
2019-06-20T15:09:32.994Z,99902.16
2019-06-20T15:12:39.874Z,99905.57
2019-06-20T15:18:46.520Z,99895.84
2019-06-20T15:21:24.178Z,99883.41
2019-06-20T15:24:24.116Z,99883.41
2019-06-20T15:26:57.024Z,99886.11
2019-06-20T15:29:30.306Z,99883.58
2019-06-20T15:32:03.916Z,99880.63
2019-06-20T15:34:37.465Z,99873.23
2019-06-20T15:37:10.340Z,99879.30
2019-06-20T15:39:43.027Z,99879.30
2019-06-20T15:42:16.090Z,99881.00
2019-06-20T15:44:50.157Z,99881.83
2019-06-20T15:47:30.407Z,99881.00
2019-06-20T15:50:09.664Z,99882.91
2019-06-20T15:53:41.711Z,99883.95
2019-06-20T15:56:15.361Z,99878.47
2019-06-20T15:58:52.032Z,99880.00
2019-06-20T16:01:25.442Z,99878.71
2019-06-20T16:06:06.366Z,99886.11
2019-06-20T16:07:04.997Z,99886.11
2019-06-20T16:09:41.051Z,99886.11
2019-06-20T16:12:17.726Z,99887.77
2019-06-20T16:14:51.396Z,99887.77
2019-06-20T16:17:27.563Z,99899.58
2019-06-20T16:20:06.358Z,99891.19
2019-06-20T16:23:01.378Z,99891.19
2019-06-20T16:26:09.943Z,99909.72
2019-06-20T16:32:48.134Z,99910.17
2019-06-20T16:35:23.926Z,99916.11
2019-06-20T16:38:04.505Z,99913.95
2019-06-20T16:41:14.518Z,99909.77
2019-06-20T16:43:57.731Z,99931.28
2019-06-20T16:46:44.595Z,99931.28
2019-06-20T16:49:39.598Z,99929.98
2019-06-20T16:52:12.509Z,99933.78
2019-06-20T16:54:53.824Z,99929.98
2019-06-20T16:57:31.791Z,99929.98
2019-06-20T17:00:06.463Z,99929.98
2019-06-20T17:02:39.509Z,99935.23
2019-06-20T17:05:13.109Z,99935.23
2019-06-20T17:07:46.363Z,99922.34
2019-06-20T17:10:38.814Z,99924.26
2019-06-20T17:13:13.966Z,99930.58
2019-06-20T17:15:47.007Z,99934.61
2019-06-20T17:18:20.123Z,99951.69
2019-06-20T17:20:53.403Z,99943.45
2019-06-20T17:23:26.858Z,99941.55
2019-06-20T17:26:01.553Z,99948.73
2019-06-20T17:31:51.282Z,99966.23
2019-06-20T17:34:24.631Z,99963.11
2019-06-20T17:36:57.407Z,99960.98
2019-06-20T17:39:35.541Z,99964.56
2019-06-20T17:42:11.442Z,99959.08
2019-06-20T17:44:45.401Z,99959.08
2019-06-20T17:47:18.344Z,99957.41
2019-06-20T17:49:51.538Z,99952.77
2019-06-20T17:52:23.365Z,99942.63
2019-06-20T17:54:56.451Z,99934.40
2019-06-20T17:57:29.379Z,99940.96
2019-06-20T18:00:02.699Z,99942.63
2019-06-20T18:02:38.597Z,99950.86
2019-06-20T18:05:10.374Z,99965.40
2019-06-20T18:07:46.639Z,99965.40
2019-06-20T18:10:32.307Z,99964.56
2019-06-20T18:13:09.107Z,99968.39
2019-06-20T18:15:41.342Z,99958.45
2019-06-20T18:18:14.408Z,99962.90
2019-06-20T18:20:47.316Z,99970.27
2019-06-20T18:23:20.246Z,99973.88
2019-06-20T18:25:53.324Z,99975.54
2019-06-20T18:28:27.332Z,99980.19
2019-06-20T18:31:00.099Z,99980.19
2019-06-20T18:33:33.716Z,99976.61
2019-06-20T18:36:06.573Z,99983.98
2019-06-20T18:38:39.705Z,99982.09
2019-06-20T18:41:12.993Z,99986.72
2019-06-20T18:43:48.292Z,99994.95
2019-06-20T18:46:21.352Z,99993.06
2019-06-20T18:48:56.562Z,100000.22
2019-06-20T18:51:29.419Z,100010.56
2019-06-20T18:54:03.933Z,100000.05
2019-06-20T18:56:45.028Z,100017.75
2019-06-20T18:59:18.659Z,100017.96
2019-06-20T19:01:51.283Z,100019.87
2019-06-20T19:04:27.329Z,100023.66
2019-06-20T19:07:00.437Z,100028.93
2019-06-20T19:09:37.758Z,100032.75
2019-06-20T19:12:11.172Z,100035.50
2019-06-20T19:14:44.349Z,100025.56
2019-06-20T19:17:17.551Z,100030.01
2019-06-20T19:19:50.673Z,100047.30
2019-06-20T19:22:22.655Z,100047.30
2019-06-20T19:24:54.380Z,100040.98
2019-06-20T19:27:27.391Z,100040.98
2019-06-20T19:30:00.545Z,100053.83
2019-06-20T19:32:34.356Z,100053.83
2019-06-20T19:35:10.383Z,100053.83
2019-06-20T19:37:44.074Z,100051.08
2019-06-20T19:40:21.313Z,100063.96
2019-06-20T19:42:54.383Z,100055.73
2019-06-20T19:45:27.385Z,100054.91
2019-06-20T19:48:00.558Z,100058.48
2019-06-20T19:50:33.748Z,100075.83
2019-06-20T19:53:06.621Z,100075.83
2019-06-20T19:55:38.787Z,100087.81
2019-06-20T19:58:12.179Z,100083.40
2019-06-20T20:00:46.160Z,100093.30
2019-06-20T20:03:19.331Z,100095.20
2019-06-20T20:05:52.586Z,100096.04
2019-06-20T20:08:25.350Z,100096.04
2019-06-20T20:10:58.379Z,100096.04
2019-06-20T20:13:31.352Z,100104.27
2019-06-20T20:16:04.354Z,100105.10
2019-06-20T20:18:37.335Z,100100.69
2019-06-20T20:21:10.342Z,100096.04
2019-06-20T20:23:43.332Z,100102.59
2019-06-20T20:26:16.366Z,100114.41
2019-06-20T20:28:49.463Z,100108.08
2019-06-20T20:31:22.374Z,100114.41
2019-06-20T20:33:55.614Z,100098.78
2019-06-20T20:36:27.275Z,100088.89
2019-06-20T20:39:00.107Z,100112.70
2019-06-20T20:41:33.356Z,100127.48
2019-06-20T20:44:06.650Z,100145.41
2019-06-20T20:46:38.357Z,100126.20
2019-06-20T20:49:11.474Z,100126.20
2019-06-20T20:51:44.330Z,100132.53
2019-06-20T20:54:17.090Z,100146.23
2019-06-20T20:56:50.022Z,100154.70
2019-06-20T20:59:22.973Z,100156.58
2019-06-20T21:01:56.116Z,100161.23
2019-06-20T21:04:28.909Z,100168.42
2019-06-20T21:07:02.151Z,100160.40
2019-06-20T21:09:35.279Z,100173.03
2019-06-20T21:12:08.024Z,100161.47
2019-06-20T21:14:40.856Z,100160.40
2019-06-20T21:17:14.089Z,100168.83
2019-06-20T21:19:46.976Z,100167.16
2019-06-20T21:22:19.869Z,100167.16
2019-06-20T21:24:52.434Z,100172.02
2019-06-20T21:27:24.245Z,100166.77
2019-06-20T21:29:57.256Z,100161.48
2019-06-20T21:32:30.043Z,100159.58
2019-06-20T21:35:02.905Z,100155.80
2019-06-20T21:37:35.775Z,100165.91
2019-06-20T21:40:08.442Z,100172.25
2019-06-20T21:42:41.074Z,100169.72
2019-06-20T21:45:14.870Z,100173.09
2019-06-20T21:47:47.452Z,100172.45
2019-06-20T21:50:20.007Z,100176.03
2019-06-20T21:52:53.337Z,100176.87
2019-06-20T21:55:25.917Z,100181.31
2019-06-20T21:57:58.396Z,100179.41
2019-06-20T22:00:40.553Z,100193.75
2019-06-20T22:03:13.246Z,100207.03
2019-06-20T22:05:46.009Z,100207.03
2019-06-20T22:08:18.670Z,100217.80
2019-06-20T22:10:50.220Z,100211.92
2019-06-20T22:13:23.098Z,100212.95
2019-06-20T22:15:55.882Z,100205.17
2019-06-20T22:18:28.458Z,100206.64
2019-06-20T22:21:01.316Z,100216.14
2019-06-20T22:23:34.462Z,100228.39
2019-06-20T22:26:07.015Z,100236.59
2019-06-20T22:28:39.891Z,100224.56
2019-06-20T22:31:12.570Z,100226.04
2019-06-20T22:33:45.759Z,100214.87
2019-06-20T22:36:18.871Z,100214.87
2019-06-20T22:38:52.148Z,100219.70
2019-06-20T22:41:24.848Z,100216.52
2019-06-20T22:43:57.453Z,100223.68
2019-06-20T22:46:30.028Z,100225.38
2019-06-20T22:49:02.948Z,100221.56
2019-06-20T22:51:35.562Z,100233.61
2019-06-20T22:54:07.842Z,100236.35
2019-06-20T22:56:40.304Z,100233.61
2019-06-20T22:59:13.106Z,100235.28
2019-06-20T23:01:46.102Z,100224.31
2019-06-20T23:04:19.087Z,100228.75
2019-06-20T23:06:56.421Z,100237.19
2019-06-20T23:09:27.741Z,100238.27
2019-06-20T23:12:02.064Z,100228.13
2019-06-20T23:14:36.348Z,100234.65
2019-06-20T23:17:09.324Z,100234.65
2019-06-20T23:19:45.017Z,100241.00
2019-06-20T23:22:17.892Z,100238.27
2019-06-20T23:24:50.874Z,100239.09
2019-06-20T23:27:24.026Z,100240.13
2019-06-20T23:29:57.330Z,100238.46
2019-06-20T23:32:30.904Z,100239.30
2019-06-20T23:35:04.323Z,100239.30
2019-06-20T23:37:37.098Z,100238.46
2019-06-20T23:40:10.758Z,100240.13
2019-06-20T23:42:44.371Z,100239.30
2019-06-20T23:45:18.493Z,100250.27
2019-06-20T23:47:51.296Z,100236.36
2019-06-20T23:50:24.079Z,100236.36
2019-06-20T23:53:08.607Z,100249.43
2019-06-20T23:55:41.325Z,100267.80
2019-06-20T23:58:14.405Z,100267.80
